Time;durP1;ratioP1;P1;durP2;ratioP2;P2;SDS_P1;SDS_P2;PMS_P1;PMS_P2;Temp;Humidity;BMP_temperature;BMP_pressure;BME280_temperature;BME280_humidity;BME280_pressure;Samples;Min_cycle;Max_cycle;Signal;HPM_P1;HPM_P2
2022/09/03 00:00:47;;;;;;;5.53;5.22;;;;;;;17.35;50.59;100922.69;6112463;23;20013;-74
2022/09/03 00:03:23;;;;;;;5.38;5.13;;;;;;;16.86;50.70;100845.09;6134887;23;20734;-74
2022/09/03 00:06:06;;;;;;;5.35;5.05;;;;;;;17.05;50.79;100865.72;6140045;23;20092;-74
2022/09/03 00:08:37;;;;;;;;;;;;;;;17.36;50.86;100927.03;6135108;23;20013;-75
2022/09/03 00:11:15;;;;;;;;;;;;;;;17.38;50.91;100918.94;6144847;23;19908;-73
2022/09/03 00:13:48;;;;;;;5.50;5.20;;;;;;;17.35;50.80;100923.53;6134963;23;19938;-74
2022/09/03 00:16:20;;;;;;;5.30;5.00;;;;;;;17.26;51.17;100907.47;6141776;23;20016;-74
2022/09/03 00:18:52;;;;;;;5.53;5.22;;;;;;;17.24;51.15;100917.34;6147690;23;20017;-74
2022/09/03 00:21:36;;;;;;;5.43;5.20;;;;;;;16.78;51.00;100852.75;6148739;23;20521;-74
2022/09/03 00:24:08;;;;;;;7.85;5.10;;;;;;;16.68;51.58;100843.81;6159262;23;20041;-74
2022/09/03 00:26:45;;;;;;;6.43;6.03;;;;;;;16.74;51.54;100857.44;6142822;23;20390;-74
2022/09/03 00:29:18;;;;;;;5.30;5.10;;;;;;;17.07;51.64;100919.50;6136357;23;20068;-73
2022/09/03 00:31:53;;;;;;;5.40;5.10;;;;;;;16.72;52.07;100869.13;6140252;23;20083;-74
2022/09/03 00:34:43;;;;;;;5.47;5.18;;;;;;;17.02;51.66;100921.66;6135415;23;20063;-74
2022/09/03 00:37:10;;;;;;;5.10;4.90;;;;;;;16.28;52.19;100829.09;6138287;23;20013;-74
2022/09/03 00:39:41;;;;;;;5.65;5.28;;;;;;;16.24;52.45;100822.34;6133749;23;20025;-73
2022/09/03 00:42:42;;;;;;;5.63;5.30;;;;;;;16.82;53.01;100917.00;6114215;23;20574;-74
2022/09/03 00:45:32;;;;;;;5.40;5.10;;;;;;;16.23;52.91;100827.75;6131798;23;20019;-74
2022/09/03 00:48:11;;;;;;;5.50;5.20;;;;;;;16.77;52.70;100940.34;6136122;23;20009;-75
2022/09/03 00:51:07;;;;;;;5.75;5.45;;;;;;;16.68;52.76;100918.88;6136421;23;20043;-73
2022/09/03 00:53:50;;;;;;;6.47;6.10;;;;;;;16.52;53.61;100908.56;6143748;23;20017;-75
2022/09/03 00:56:22;;;;;;;5.40;5.10;;;;;;;16.43;54.23;100916.31;6130442;23;20021;-73
2022/09/03 00:59:17;;;;;;;5.70;5.40;;;;;;;16.33;54.61;100926.75;6138151;23;20029;-74
2022/09/03 01:01:59;;;;;;;5.70;5.30;;;;;;;16.25;55.42;100922.00;6122074;23;20051;-74
2022/09/03 01:05:08;;;;;;;5.28;5.00;;;;;;;16.19;54.70;100913.66;6131278;23;20096;-76
2022/09/03 01:07:57;;;;;;;7.30;5.20;;;;;;;16.17;55.77;100921.72;6108781;23;20017;-75
2022/09/03 01:10:43;;;;;;;6.25;5.95;;;;;;;15.93;55.48;100876.66;6116244;23;20017;-74
2022/09/03 01:13:22;;;;;;;5.50;5.20;;;;;;;16.00;55.52;100898.28;6126570;23;20154;-74
2022/09/03 01:16:26;;;;;;;6.38;6.07;;;;;;;15.98;56.55;100914.25;6133341;23;20033;-74
2022/09/03 01:19:14;;;;;;;5.50;5.20;;;;;;;15.98;56.61;100911.63;6144563;23;20026;-74
2022/09/03 01:22:27;;;;;;;5.90;5.60;;;;;;;16.01;56.71;100911.38;6139097;23;20017;-73
2022/09/03 01:25:16;;;;;;;6.22;5.22;;;;;;;15.93;56.96;100903.97;6147966;18;20042;-76
2022/09/03 01:28:13;;;;;;;4.97;4.78;;;;;;;14.77;56.74;100725.25;6025915;23;20050;-75
2022/09/03 01:30:47;;;;;;;5.80;5.50;;;;;;;15.85;56.53;100922.22;6015974;23;20265;-75
2022/09/03 01:33:37;;;;;;;5.25;5.05;;;;;;;15.88;57.06;100911.41;5999776;23;20530;-75
2022/09/03 01:36:10;;;;;;;5.32;5.03;;;;;;;15.87;57.26;100912.34;6040128;23;20358;-75
2022/09/03 01:38:50;;;;;;;6.13;5.82;;;;;;;15.83;57.45;100910.88;6027571;23;20177;-75
2022/09/03 01:44:42;;;;;;;5.18;4.93;;;;;;;15.56;57.36;100895.97;6044617;23;20078;-76
2022/09/03 01:47:25;;;;;;;5.30;5.10;;;;;;;15.71;57.60;100901.97;6003152;23;20014;-76
2022/09/03 01:50:03;;;;;;;5.40;5.10;;;;;;;15.76;57.74;100907.00;6031343;23;20087;-73
2022/09/03 01:52:55;;;;;;;5.10;4.90;;;;;;;14.38;58.01;100694.50;6045275;23;20026;-74
2022/09/03 01:55:32;;;;;;;5.97;5.68;;;;;;;15.18;58.66;100835.19;6022131;23;20026;-75
2022/09/03 01:58:13;;;;;;;5.15;4.90;;;;;;;15.56;58.82;100911.84;6048877;23;20742;-73
2022/09/03 02:00:44;;;;;;;5.60;5.30;;;;;;;14.90;59.14;100839.72;6024445;23;20019;-72
2022/09/03 02:03:12;;;;;;;5.63;5.22;;;;;;;15.20;59.43;100850.94;6047110;23;20011;-76
2022/09/03 02:05:38;;;;;;;5.13;4.93;;;;;;;15.02;59.22;100845.97;6039565;23;20018;-74
2022/09/03 02:08:07;;;;;;;5.30;4.82;;;;;;;15.41;59.33;100904.97;6051527;23;20009;-74
2022/09/03 02:10:43;;;;;;;5.90;5.50;;;;;;;15.42;59.84;100916.41;6036224;23;20011;-75
2022/09/03 02:13:14;;;;;;;5.85;5.20;;;;;;;15.10;60.16;100867.44;6053693;23;20009;-75
2022/09/03 02:15:44;;;;;;;5.63;5.32;;;;;;;15.38;59.98;100899.91;6039592;23;20030;-75
2022/09/03 02:18:19;;;;;;;5.50;5.20;;;;;;;14.35;60.18;100765.03;6054209;23;20479;-76
2022/09/03 02:20:47;;;;;;;5.78;5.47;;;;;;;14.98;60.51;100857.72;6052521;23;20451;-74
2022/09/03 02:23:14;;;;;;;5.30;5.00;;;;;;;14.87;60.78;100836.44;6038771;23;20042;-75
2022/09/03 02:25:46;;;;;;;6.13;5.72;;;;;;;14.52;60.92;100786.81;6039596;23;20037;-74
2022/09/03 02:28:14;;;;;;;5.40;5.10;;;;;;;15.16;61.02;100904.03;6066618;23;20019;-74
2022/09/03 02:30:43;;;;;;;5.35;5.05;;;;;;;14.47;61.73;100799.47;6058763;23;20683;-73
2022/09/03 02:33:10;;;;;;;5.28;4.93;;;;;;;14.78;61.38;100860.84;6062556;23;20028;-76
2022/09/03 02:35:36;;;;;;;6.18;5.88;;;;;;;14.93;62.16;100879.16;6001842;23;20050;-76
2022/09/03 02:38:15;;;;;;;5.30;4.90;;;;;;;14.95;61.88;100886.97;6062897;23;20076;-75
2022/09/03 02:40:43;;;;;;;5.60;5.30;;;;;;;15.06;61.61;100904.75;6047986;23;20024;-75
2022/09/03 02:43:19;;;;;;;5.00;4.80;;;;;;;14.50;62.06;100828.31;6054805;23;20061;-76
2022/09/03 02:45:55;;;;;;;5.05;4.85;;;;;;;14.25;62.06;100798.28;6045622;23;20618;-75
2022/09/03 02:48:23;;;;;;;5.30;5.00;;;;;;;14.89;61.97;100893.53;6055135;23;20033;-75
2022/09/03 02:50:50;;;;;;;5.05;4.85;;;;;;;14.71;62.26;100873.59;6053710;23;20033;-74
2022/09/03 02:53:16;;;;;;;5.32;5.03;;;;;;;14.73;62.83;100875.22;6055959;23;20639;-71
2022/09/03 02:55:43;;;;;;;5.50;5.10;;;;;;;14.84;62.92;100890.34;6037363;23;20015;-74
2022/09/03 02:58:10;;;;;;;5.30;5.00;;;;;;;14.52;62.99;100850.19;6052822;23;20020;-75
2022/09/03 03:00:36;;;;;;;6.22;5.93;;;;;;;14.68;62.70;100876.47;6045687;23;20810;-76
2022/09/03 03:03:04;;;;;;;4.80;4.60;;;;;;;14.32;63.01;100839.16;6052232;23;20102;-75
2022/09/03 03:05:42;;;;;;;5.43;5.10;;;;;;;14.75;63.04;100901.50;6011575;23;20022;-75
2022/09/03 03:08:11;;;;;;;4.70;4.50;;;;;;;14.65;63.09;100885.41;6050537;23;20022;-75
2022/09/03 03:10:37;;;;;;;5.80;5.50;;;;;;;14.66;62.99;100879.22;6037149;23;20031;-76
2022/09/03 03:13:03;;;;;;;5.18;4.88;;;;;;;14.50;62.82;100846.81;6054851;23;20089;-75
2022/09/03 03:15:30;;;;;;;6.45;6.15;;;;;;;13.97;63.36;100762.25;6035124;23;20607;-74
2022/09/03 03:17:57;;;;;;;5.30;5.00;;;;;;;14.76;63.82;100890.84;6042658;23;20018;-77
2022/09/03 03:20:23;;;;;;;5.35;5.05;;;;;;;14.36;63.38;100821.31;6045610;23;20018;-74
2022/09/03 03:22:49;;;;;;;5.30;5.00;;;;;;;14.25;63.09;100810.59;6036495;23;20069;-75
2022/09/03 03:25:16;;;;;;;4.97;4.78;;;;;;;14.69;63.53;100878.16;6033491;23;20532;-74
2022/09/03 03:27:46;;;;;;;5.47;5.22;;;;;;;14.72;63.05;100881.44;6050770;23;20011;-74
2022/09/03 03:30:13;;;;;;;4.85;4.65;;;;;;;14.53;63.83;100867.72;6051104;23;20018;-72
2022/09/03 03:32:39;;;;;;;5.10;4.72;;;;;;;14.08;63.83;100788.81;6019856;23;20568;-74
2022/09/03 03:35:06;;;;;;;4.97;4.72;;;;;;;14.64;64.87;100880.25;6033222;23;20106;-76
2022/09/03 03:37:34;;;;;;;6.38;6.07;;;;;;;14.62;64.76;100882.16;6046989;23;20034;-72
2022/09/03 03:40:01;;;;;;;5.07;4.78;;;;;;;14.31;64.56;100840.13;6034347;23;20019;-76
2022/09/03 03:42:28;;;;;;;6.15;5.60;;;;;;;14.58;64.91;100886.78;6049878;23;20734;-75
2022/09/03 03:44:54;;;;;;;4.90;4.70;;;;;;;14.24;65.06;100830.88;6027453;23;20467;-76
2022/09/03 03:47:21;;;;;;;5.97;4.97;;;;;;;13.98;64.93;100786.88;6048693;23;20037;-74
2022/09/03 03:49:47;;;;;;;5.13;4.88;;;;;;;14.21;64.29;100835.50;6022274;23;20110;-74
2022/09/03 03:52:13;;;;;;;5.18;4.88;;;;;;;14.47;65.42;100876.06;6028277;23;20435;-76
2022/09/03 03:54:40;;;;;;;5.15;4.85;;;;;;;13.40;65.29;100730.81;6015494;23;20030;-75
2022/09/03 03:57:06;;;;;;;5.25;4.95;;;;;;;14.53;65.23;100888.84;6032810;23;20031;-76
2022/09/03 03:59:33;;;;;;;6.90;6.50;;;;;;;14.13;64.94;100805.22;6051459;23;20030;-75
2022/09/03 04:01:59;;;;;;;5.00;4.80;;;;;;;14.58;64.64;100884.16;6055054;23;20017;-76
2022/09/03 04:04:26;;;;;;;6.53;6.13;;;;;;;14.54;64.81;100886.13;6048046;23;20639;-75
2022/09/03 04:06:52;;;;;;;4.93;4.72;;;;;;;14.07;64.92;100816.16;6030767;23;20090;-74
2022/09/03 04:09:19;;;;;;;4.95;4.75;;;;;;;14.41;65.44;100885.22;6050081;23;20027;-74
2022/09/03 04:11:45;;;;;;;5.22;4.97;;;;;;;14.40;66.36;100882.69;6045975;23;20022;-73
2022/09/03 04:14:11;;;;;;;5.20;5.00;;;;;;;14.40;66.11;100875.63;6043465;23;20030;-75
2022/09/03 04:16:38;;;;;;;5.70;5.40;;;;;;;14.36;66.73;100868.84;6021012;23;20352;-76
2022/09/03 04:19:04;;;;;;;5.10;4.90;;;;;;;13.82;66.02;100782.59;6047566;23;20029;-77
2022/09/03 04:21:31;;;;;;;6.40;6.10;;;;;;;14.34;65.95;100868.09;6017539;23;20055;-76
2022/09/03 04:23:58;;;;;;;5.25;5.05;;;;;;;14.30;66.37;100872.72;6043933;23;20014;-74
2022/09/03 04:26:31;;;;;;;5.90;5.53;;;;;;;14.30;67.09;100859.53;6052281;23;20631;-75
2022/09/03 04:29:02;;;;;;;4.97;4.78;;;;;;;13.54;66.97;100743.97;6081171;23;20029;-75
2022/09/03 04:31:29;;;;;;;6.03;5.65;;;;;;;13.93;66.60;100816.19;6083684;23;20041;-76
2022/09/03 04:33:57;;;;;;;5.00;4.80;;;;;;;13.68;67.39;100770.28;6082457;23;20010;-76
2022/09/03 04:36:27;;;;;;;6.28;5.97;;;;;;;14.22;66.83;100860.97;6065620;23;20086;-75
2022/09/03 04:38:54;;;;;;;5.15;4.85;;;;;;;13.98;67.69;100835.22;6063782;23;20032;-73
2022/09/03 04:41:24;;;;;;;5.88;5.57;;;;;;;14.04;67.84;100845.38;6056109;23;20018;-76
2022/09/03 04:43:52;;;;;;;4.85;4.65;;;;;;;13.84;67.60;100811.50;6084785;23;20021;-75
2022/09/03 04:46:20;;;;;;;4.80;4.60;;;;;;;13.60;67.52;100766.47;6058796;23;20014;-73
2022/09/03 04:48:49;;;;;;;5.10;4.90;;;;;;;14.17;68.00;100861.25;6051408;23;20071;-75
2022/09/03 04:51:19;;;;;;;5.22;4.93;;;;;;;13.82;67.71;100803.69;6088920;23;20014;-73
2022/09/03 04:53:48;;;;;;;5.10;4.90;;;;;;;13.94;67.62;100812.63;6056828;23;20097;-74
2022/09/03 04:56:18;;;;;;;5.47;5.07;;;;;;;13.71;67.08;100772.75;6090919;23;20040;-76
2022/09/03 04:58:45;;;;;;;6.15;5.10;;;;;;;14.36;67.78;100874.13;6087366;23;20179;-77
2022/09/03 05:01:18;;;;;;;5.00;4.70;;;;;;;13.42;67.26;100719.22;6077901;23;20048;-77
2022/09/03 05:03:45;;;;;;;5.10;4.80;;;;;;;14.45;66.83;100878.81;6088927;23;20021;-78
2022/09/03 05:06:13;;;;;;;5.00;4.70;;;;;;;14.18;66.90;100836.56;6094117;23;20188;-78
2022/09/03 05:08:39;;;;;;;5.63;5.32;;;;;;;14.35;66.44;100848.66;6079883;23;20764;-78
2022/09/03 05:11:07;;;;;;;4.82;4.63;;;;;;;14.01;66.55;100798.09;6041176;23;20027;-78
2022/09/03 05:13:35;;;;;;;6.25;5.95;;;;;;;14.56;66.71;100872.84;6064534;23;20022;-80
2022/09/03 05:16:05;;;;;;;5.10;4.80;;;;;;;14.56;67.46;100865.75;6085588;23;20017;-78
2022/09/03 05:18:34;;;;;;;6.47;6.18;;;;;;;14.31;66.63;100819.00;6062073;23;20284;-77
2022/09/03 05:21:03;;;;;;;5.20;4.90;;;;;;;14.07;66.95;100775.72;6063516;23;20031;-78
2022/09/03 05:23:30;;;;;;;6.80;6.20;;;;;;;14.07;66.64;100763.38;6074035;23;20014;-76
2022/09/03 05:26:07;;;;;;;5.00;4.80;;;;;;;14.79;66.77;100868.66;6086918;23;20022;-78
2022/09/03 05:28:38;;;;;;;6.30;5.90;;;;;;;14.50;65.82;100808.03;6082529;23;20071;-78
2022/09/03 05:31:13;;;;;;;4.90;4.70;;;;;;;14.19;65.31;100748.50;6082173;23;20022;-78
2022/09/03 05:33:42;;;;;;;11.18;5.25;;;;;;;15.02;65.64;100863.63;6063370;23;20101;-76
2022/09/03 05:36:12;;;;;;;5.47;5.18;;;;;;;14.91;66.16;100841.44;6083668;23;20045;-78
2022/09/03 05:38:39;;;;;;;10.10;5.90;;;;;;;14.80;65.44;100811.41;6064269;23;20052;-77
2022/09/03 05:41:08;;;;;;;5.43;5.03;;;;;;;14.00;64.89;100645.16;6084238;23;20018;-75
2022/09/03 05:43:35;;;;;;;6.88;6.47;;;;;;;15.38;64.57;100852.31;6080732;23;20035;-75
2022/09/03 05:46:05;;;;;;;5.22;4.93;;;;;;;15.32;64.79;100832.41;6092156;23;20093;-79
2022/09/03 05:48:36;;;;;;;7.05;6.40;;;;;;;15.65;63.49;100865.38;6079605;23;20104;-77
2022/09/03 05:51:05;;;;;;;5.20;4.90;;;;;;;14.99;63.04;100718.47;6078035;23;20034;-76
2022/09/03 05:53:33;;;;;;;6.28;5.90;;;;;;;15.96;63.35;100865.88;6058073;23;20465;-79
2022/09/03 05:56:05;;;;;;;5.43;4.93;;;;;;;15.87;62.54;100832.97;6058387;23;20549;-78
2022/09/03 05:58:38;;;;;;;6.18;5.88;;;;;;;16.17;61.73;100865.28;6067627;23;20623;-78
2022/09/03 06:01:15;;;;;;;5.07;4.88;;;;;;;15.71;61.07;100767.03;6079483;23;20674;-76
2022/09/03 06:03:43;;;;;;;5.90;5.28;;;;;;;16.43;60.97;100866.84;6059465;23;20073;-76
2022/09/03 06:06:12;;;;;;;5.30;5.00;;;;;;;16.32;59.99;100827.91;6085313;23;20017;-78
2022/09/03 06:08:40;;;;;;;5.05;4.75;;;;;;;16.06;59.30;100768.94;6052094;23;20014;-78
2022/09/03 06:11:07;;;;;;;5.45;5.05;;;;;;;16.35;58.38;100801.19;6093156;23;20089;-78
2022/09/03 06:13:34;;;;;;;6.28;5.97;;;;;;;16.93;58.57;100879.94;6056237;23;20018;-77
2022/09/03 06:16:05;;;;;;;5.57;5.38;;;;;;;16.55;58.40;100812.94;6086436;23;20019;-78
2022/09/03 06:18:32;;;;;;;6.43;6.13;;;;;;;17.13;57.55;100863.34;6061795;23;20022;-79
2022/09/03 06:21:05;;;;;;;4.93;4.72;;;;;;;17.05;57.01;100823.31;6077166;23;20337;-77
2022/09/03 06:23:33;;;;;;;6.45;6.15;;;;;;;16.59;56.12;100728.75;6055525;23;20022;-77
2022/09/03 06:26:05;;;;;;;4.97;4.78;;;;;;;17.26;56.11;100809.34;6083823;23;20017;-77
2022/09/03 06:28:37;;;;;;;6.57;6.28;;;;;;;17.60;55.33;100855.28;6036920;23;20025;-77
2022/09/03 06:31:06;;;;;;;4.85;4.65;;;;;;;17.49;56.08;100842.03;6086052;23;20046;-77
2022/09/03 06:33:35;;;;;;;6.05;5.75;;;;;;;17.54;55.28;100839.88;6058045;23;20154;-76
2022/09/03 06:36:04;;;;;;;5.15;4.95;;;;;;;17.85;55.33;100854.19;6087163;23;20080;-77
2022/09/03 06:38:35;;;;;;;;;;;;;;;17.91;55.30;100844.91;6053806;23;20032;-78
2022/09/03 06:41:05;;;;;;;5.22;5.03;;;;;;;17.98;54.97;100855.84;6078644;23;19953;-76
2022/09/03 06:43:34;;;;;;;6.63;6.32;;;;;;;17.62;55.57;100802.94;6046418;23;20023;-76
2022/09/03 06:46:04;;;;;;;5.40;5.10;;;;;;;17.95;54.78;100854.31;6065704;23;20096;-75
2022/09/03 06:48:33;;;;;;;6.32;6.03;;;;;;;17.97;55.17;100852.38;6050678;23;20022;-79
2022/09/03 06:51:05;;;;;;;5.25;5.05;;;;;;;18.07;54.68;100849.81;6090108;23;20030;-78
2022/09/03 06:53:37;;;;;;;6.55;6.15;;;;;;;17.83;54.43;100791.53;6041067;23;20015;-78
2022/09/03 06:56:09;;;;;;;5.40;5.10;;;;;;;18.25;54.99;100853.63;6086356;23;20085;-77
2022/09/03 06:58:38;;;;;;;6.18;5.88;;;;;;;18.32;54.22;100844.19;6032054;23;20030;-77
2022/09/03 07:01:12;;;;;;;5.18;4.93;;;;;;;18.32;54.61;100846.84;6051064;23;20033;-77
2022/09/03 07:03:40;;;;;;;5.40;5.10;;;;;;;17.65;53.54;100725.72;6026685;23;20489;-77
2022/09/03 07:06:09;;;;;;;4.88;4.68;;;;;;;18.30;54.14;100831.97;6087209;23;20077;-77
2022/09/03 07:08:35;;;;;;;6.40;6.10;;;;;;;18.69;53.21;100845.56;6040444;23;20022;-76
2022/09/03 07:11:07;;;;;;;5.10;4.90;;;;;;;18.70;53.16;100840.13;6090657;23;20042;-78
2022/09/03 07:13:40;;;;;;;6.45;6.15;;;;;;;18.68;53.63;100836.78;6029097;23;20015;-76
2022/09/03 07:16:16;;;;;;;5.57;5.28;;;;;;;18.78;53.53;100846.59;6077663;23;20021;-76
2022/09/03 07:18:45;;;;;;;5.60;5.30;;;;;;;18.61;52.11;100797.53;6030846;23;20433;-77
2022/09/03 07:21:14;;;;;;;14.70;5.57;;;;;;;19.00;52.57;100843.84;6082875;23;20018;-78
2022/09/03 07:23:41;;;;;;;6.00;5.50;;;;;;;18.64;52.80;100752.94;6035701;23;20023;-78
2022/09/03 07:26:14;;;;;;;6.45;6.05;;;;;;;18.68;52.13;100788.91;6071312;23;20046;-78
2022/09/03 07:28:42;;;;;;;5.65;5.35;;;;;;;18.82;51.76;100789.56;6086345;18;20594;-74
2022/09/03 07:31:15;;;;;;;5.68;5.38;;;;;;;19.32;51.64;100842.88;6079680;23;20021;-74
2022/09/03 07:33:42;;;;;;;5.40;5.20;;;;;;;18.98;51.39;100755.34;6098936;23;20049;-73
2022/09/03 07:36:13;;;;;;;5.50;5.20;;;;;;;19.69;50.80;100839.66;6078520;23;20092;-74
2022/09/03 07:38:43;;;;;;;5.10;4.90;;;;;;;19.70;50.84;100833.34;6100990;23;20085;-74
2022/09/03 07:41:11;;;;;;;5.32;5.13;;;;;;;19.97;50.12;100831.91;6067495;23;20048;-74
2022/09/03 07:43:45;;;;;;;5.60;5.30;;;;;;;20.01;49.48;100758.72;6102583;23;20017;-74
2022/09/03 07:46:23;;;;;;;5.47;5.28;;;;;;;20.44;49.17;100824.91;6082264;23;20030;-73
2022/09/03 07:48:57;;;;;;;5.90;5.60;;;;;;;19.97;48.98;100744.00;6102442;23;20029;-73
2022/09/03 07:51:27;;;;;;;6.68;6.28;;;;;;;20.41;48.89;100829.72;6067687;23;20458;-72
2022/09/03 07:53:59;;;;;;;5.50;5.20;;;;;;;20.23;49.30;100803.75;6108338;23;20025;-74
2022/09/03 07:56:26;;;;;;;6.53;6.22;;;;;;;19.83;48.38;100754.09;6077745;23;20081;-73
2022/09/03 07:58:56;;;;;;;5.25;5.05;;;;;;;19.78;49.84;100800.75;6102500;23;20021;-74
2022/09/03 08:01:23;;;;;;;5.75;5.47;;;;;;;20.01;50.65;100854.63;6077394;23;20108;-73
2022/09/03 08:03:52;;;;;;;5.35;5.15;;;;;;;19.74;50.63;100832.13;6105970;23;20018;-74
2022/09/03 08:06:21;;;;;;;5.30;5.10;;;;;;;18.72;50.33;100668.03;6086269;23;20014;-73
2022/09/03 08:08:48;;;;;;;5.82;5.32;;;;;;;19.93;50.29;100855.31;6102104;23;20415;-73
2022/09/03 08:11:17;;;;;;;5.50;5.20;;;;;;;19.63;50.59;100813.59;6084985;23;20196;-73
2022/09/03 08:13:47;;;;;;;5.35;5.10;;;;;;;20.01;50.99;100863.47;6106177;23;20207;-73
2022/09/03 08:16:17;;;;;;;5.60;5.30;;;;;;;19.96;50.56;100867.50;6084066;23;20049;-73
2022/09/03 08:18:45;;;;;;;5.50;5.20;;;;;;;19.91;51.22;100863.44;6103393;23;20079;-74
2022/09/03 08:21:14;;;;;;;5.65;5.35;;;;;;;19.95;50.62;100868.50;6085184;23;20014;-74
2022/09/03 08:23:43;;;;;;;5.97;5.68;;;;;;;19.91;50.49;100863.44;6096974;23;20022;-73
2022/09/03 08:26:10;;;;;;;5.50;5.20;;;;;;;18.94;51.42;100719.38;6080289;23;20018;-74
2022/09/03 08:28:37;;;;;;;6.15;5.85;;;;;;;19.17;51.42;100743.97;6105953;23;20041;-73
2022/09/03 08:31:08;;;;;;;5.40;5.10;;;;;;;19.87;50.83;100834.56;6077435;23;20016;-73
2022/09/03 08:33:41;;;;;;;6.07;5.78;;;;;;;20.22;51.23;100859.84;6099557;23;20025;-74
2022/09/03 08:36:14;;;;;;;5.32;5.13;;;;;;;20.23;51.11;100853.56;6083011;23;20018;-74
2022/09/03 08:38:42;;;;;;;5.53;5.25;;;;;;;20.00;51.14;100808.50;6101848;23;20387;-73
2022/09/03 08:41:14;;;;;;;5.40;5.10;;;;;;;20.43;51.12;100857.06;6073560;23;20094;-74
2022/09/03 08:43:55;;;;;;;5.80;5.50;;;;;;;20.05;50.80;100742.31;6099940;23;20398;-73
2022/09/03 08:46:32;;;;;;;5.95;5.65;;;;;;;21.14;51.04;100840.69;6075720;23;20097;-73
2022/09/03 08:48:59;;;;;;;5.40;5.20;;;;;;;21.69;48.72;100802.53;6106686;23;20537;-74
2022/09/03 08:51:29;;;;;;;6.43;6.13;;;;;;;21.96;48.34;100790.13;6073899;23;20153;-74
2022/09/03 08:53:57;;;;;;;5.70;5.40;;;;;;;22.32;47.05;100798.16;6110093;23;20036;-73
2022/09/03 08:56:27;;;;;;;6.28;5.97;;;;;;;21.96;46.87;100739.34;6078539;23;20097;-74
2022/09/03 08:58:54;;;;;;;6.47;5.90;;;;;;;22.57;46.64;100801.88;6107886;23;20020;-73
2022/09/03 09:01:47;;;;;;;5.85;5.55;;;;;;;22.59;47.29;100781.16;6084225;23;20013;-73
2022/09/03 09:04:29;;;;;;;6.00;5.63;;;;;;;22.96;46.61;100826.38;6048765;23;20047;-73
2022/09/03 09:07:11;;;;;;;5.60;5.35;;;;;;;22.21;46.21;100792.03;6068711;23;20014;-74
2022/09/03 09:10:08;;;;;;;6.10;5.75;;;;;;;21.74;47.86;100797.56;6108951;23;20060;-74
2022/09/03 09:12:43;;;;;;;7.22;6.55;;;;;;;21.51;49.63;100840.72;6072753;23;20173;-74
2022/09/03 09:15:18;;;;;;;5.80;5.40;;;;;;;21.15;50.83;100854.88;6093184;23;20016;-73
2022/09/03 09:17:53;;;;;;;5.90;5.50;;;;;;;20.74;52.75;100867.59;6079557;23;20748;-73
2022/09/03 09:20:41;;;;;;;6.00;5.63;;;;;;;20.55;52.31;100799.94;6101020;23;20014;-73
2022/09/03 09:23:13;;;;;;;5.80;5.50;;;;;;;19.97;52.38;100666.75;6077656;23;20026;-74
2022/09/03 09:25:50;;;;;;;5.50;5.22;;;;;;;21.20;52.78;100858.78;6100770;23;20450;-74
2022/09/03 09:28:22;;;;;;;6.68;6.38;;;;;;;20.75;52.85;100808.78;6074176;23;20020;-74
2022/09/03 09:30:52;;;;;;;5.50;5.20;;;;;;;21.12;53.49;100831.97;6112390;23;20253;-73
2022/09/03 09:33:20;;;;;;;5.43;5.13;;;;;;;21.40;51.75;100846.22;6078529;23;20017;-74
2022/09/03 09:35:47;;;;;;;5.57;5.28;;;;;;;21.21;52.48;100830.25;6108751;23;20068;-74
2022/09/03 09:38:14;;;;;;;5.80;5.50;;;;;;;21.37;52.04;100834.97;6082720;23;20020;-73
2022/09/03 09:40:43;;;;;;;5.70;5.40;;;;;;;21.46;52.70;100844.81;6111106;23;20055;-74
2022/09/03 09:43:15;;;;;;;5.70;5.40;;;;;;;21.62;52.02;100838.84;6077657;23;20497;-74
2022/09/03 09:45:47;;;;;;;5.88;5.57;;;;;;;21.36;51.54;100779.91;6107988;23;20504;-74
2022/09/03 09:48:19;;;;;;;5.47;5.18;;;;;;;21.79;51.37;100845.19;6076645;23;20097;-74
2022/09/03 09:50:46;;;;;;;;;;;;;;;21.76;52.19;100846.34;6072557;23;20093;-74
2022/09/03 09:53:17;;;;;;;5.45;5.18;;;;;;;21.29;52.46;100750.31;6104505;23;19909;-74
2022/09/03 09:55:54;;;;;;;5.88;5.57;;;;;;;21.76;51.24;100784.91;6079089;23;20022;-74
2022/09/03 09:58:27;;;;;;;6.00;5.60;;;;;;;21.97;51.78;100850.56;6097236;23;20088;-74
2022/09/03 10:01:06;;;;;;;5.78;5.47;;;;;;;21.88;52.39;100845.16;6077800;23;20475;-73
2022/09/03 10:03:36;;;;;;;6.55;6.25;;;;;;;21.74;52.17;100810.94;6108055;23;20055;-74
2022/09/03 10:09:18;;;;;;;5.45;5.15;;;;;;;21.51;52.67;100822.03;6010431;23;20019;-73
2022/09/03 10:12:13;;;;;;;5.90;5.60;;;;;;;21.80;52.83;100852.25;6003267;23;20058;-74
2022/09/03 10:14:50;;;;;;;5.95;5.65;;;;;;;21.75;51.72;100771.69;6070961;23;20260;-74
2022/09/03 10:17:24;;;;;;;5.65;5.35;;;;;;;22.85;51.05;100838.22;6074874;23;20401;-74
2022/09/03 10:20:31;;;;;;;5.95;5.65;;;;;;;22.61;49.85;100846.03;6112192;23;20029;-74
2022/09/03 10:23:03;;;;;;;6.10;5.72;;;;;;;22.48;50.23;100846.44;6082786;23;20085;-74
2022/09/03 10:25:52;;;;;;;7.00;6.70;;;;;;;22.24;51.54;100831.84;6098367;23;20019;-73
2022/09/03 10:28:24;;;;;;;6.70;5.40;;;;;;;22.30;51.28;100841.94;6075601;23;20073;-73
2022/09/03 10:31:30;;;;;;;5.95;5.45;;;;;;;22.36;51.66;100845.00;6102433;23;20022;-74
2022/09/03 10:34:03;;;;;;;6.00;5.70;;;;;;;22.41;51.47;100824.81;6099891;23;20029;-72
2022/09/03 10:36:36;;;;;;;7.80;7.18;;;;;;;21.81;51.61;100769.28;6107025;23;20230;-72
2022/09/03 10:39:28;;;;;;;5.80;5.50;;;;;;;22.00;51.90;100811.03;6081512;23;20018;-73
2022/09/03 10:42:27;;;;;;;5.73;5.43;;;;;;;21.73;51.53;100741.63;6108776;23;20025;-72
2022/09/03 10:44:53;;;;;;;5.90;5.60;;;;;;;22.66;52.08;100851.75;6075340;23;20357;-73
2022/09/03 10:47:38;;;;;;;5.65;5.35;;;;;;;22.83;51.48;100845.56;6106615;23;20136;-72
2022/09/03 10:50:25;;;;;;;6.00;5.60;;;;;;;23.14;50.79;100839.75;6078553;23;20026;-73
2022/09/03 10:53:04;;;;;;;5.88;5.57;;;;;;;23.75;50.47;100820.91;6103297;23;20009;-75
2022/09/03 10:55:43;;;;;;;7.05;6.70;;;;;;;23.81;49.91;100818.44;6078500;23;20042;-76
2022/09/03 10:58:54;;;;;;;5.90;5.60;;;;;;;23.91;49.58;100817.47;6105991;23;20032;-75
2022/09/03 11:01:45;;;;;;;6.32;6.03;;;;;;;23.88;49.14;100819.47;6100753;23;20009;-74
2022/09/03 11:04:27;;;;;;;5.85;5.55;;;;;;;23.74;49.38;100822.75;6097293;23;20012;-73
2022/09/03 11:07:01;;;;;;;6.00;5.70;;;;;;;22.86;50.30;100726.66;6079003;23;20379;-72
2022/09/03 11:09:39;;;;;;;6.85;6.55;;;;;;;23.24;50.44;100812.88;6102599;23;20021;-73
2022/09/03 11:12:21;;;;;;;6.10;5.75;;;;;;;23.22;50.86;100834.44;6079638;23;20019;-73
2022/09/03 11:15:02;;;;;;;5.93;5.63;;;;;;;23.27;51.30;100844.66;6097922;23;20084;-74
2022/09/03 11:17:35;;;;;;;6.95;6.55;;;;;;;23.05;52.05;100801.41;6081010;23;20022;-73
2022/09/03 11:20:19;;;;;;;6.13;5.80;;;;;;;23.41;52.24;100827.97;6106087;23;20021;-72
2022/09/03 11:22:49;;;;;;;5.90;5.60;;;;;;;23.22;52.01;100812.19;6081546;23;20785;-72
2022/09/03 11:25:18;;;;;;;6.07;5.78;;;;;;;23.29;52.16;100791.78;6102970;23;20009;-73
2022/09/03 11:28:20;;;;;;;6.22;5.88;;;;;;;23.72;52.36;100824.78;6066516;23;20634;-73
2022/09/03 11:31:03;;;;;;;5.85;5.55;;;;;;;23.35;53.14;100764.34;6089726;23;20236;-73
2022/09/03 11:33:32;;;;;;;9.77;7.10;;;;;;;23.48;52.78;100742.47;6044713;23;20034;-73
2022/09/03 11:36:00;;;;;;;6.10;5.80;;;;;;;24.04;52.09;100796.41;6084736;23;20093;-73
2022/09/03 11:38:30;;;;;;;7.30;6.90;;;;;;;23.81;51.45;100753.28;6034354;23;20515;-73
2022/09/03 11:41:15;;;;;;;6.00;5.60;;;;;;;23.65;51.66;100711.19;6053953;23;20100;-73
2022/09/03 11:43:43;;;;;;;6.07;5.78;;;;;;;24.38;51.51;100782.00;6067442;23;20013;-75
2022/09/03 11:46:25;;;;;;;6.18;5.82;;;;;;;24.26;52.17;100779.63;6077100;23;20022;-75
2022/09/03 11:49:08;;;;;;;6.50;6.20;;;;;;;24.51;50.81;100774.28;6061337;23;20471;-73
2022/09/03 11:51:40;;;;;;;8.13;7.72;;;;;;;24.63;50.55;100705.84;6075389;23;20030;-75
2022/09/03 11:54:13;;;;;;;;;;;;;;;25.20;51.51;100755.00;6068417;23;20038;-73
2022/09/03 11:56:41;;;;;;;6.10;5.80;;;;;;;25.15;50.11;100760.03;6079763;23;20455;-74
2022/09/03 11:59:17;;;;;;;6.72;6.32;;;;;;;24.89;50.94;100759.28;6036422;23;20026;-74
2022/09/03 12:01:56;;;;;;;6.32;6.03;;;;;;;24.76;51.35;100752.78;6063676;23;20045;-75